METAR stanice u blizini

 

LYNI - Nis, Yugoslavia
Distance from station: JZ 40km
Ažurirano: 06/07/2020 03:00
Vedro
Vedro
 Pravac vetra varies
Vetar: varies 2 km/h
Temperatura: 19°C
Tačka rose: 16°C
Vlažnost: 83%
Pritisak: 1012 hPa
Pregled: Vedro
Vidljivost: greater than 10 km
2020/07/06 01:00 LYNI 060100Z VRB01KT CAVOK 19/16 Q1012 NOSIG
LYKV - Kraljevo, Yugoslavia
Distance from station: ZSZ 136km
Ažurirano: 06/07/2020 03:00
Vedro
Vedro
 Pravac vetra calm
Vetar: Tišina
Temperatura: 17°C
Tačka rose: 17°C
Vlažnost: 100%
Pritisak: 1013 hPa
Pregled: Vedro
Vidljivost: greater than 10 km
2020/07/06 01:00 LYKV 060100Z 00000KT CAVOK 17/17 Q1013 NOSIG
LBSF - Sofia (observato, Bulgaria
Distance from station: JI 138km
Ažurirano: 06/07/2020 03:00
Pretežno oblačno
Pretežno oblačno
 Pravac vetra varies
Vetar: varies 4 km/h
Temperatura: 17°C
Tačka rose: 16°C
Vlažnost: 94%
Pritisak: 1013 hPa
Oblaci: Pretežno oblačno
Vidljivost: 8 km
Cloud details: Delimično oblačno 1981 m
Pretežno oblačno 2560 m
2020/07/06 01:00 LBSF 060100Z VRB02KT 8000 SCT065 BKN084 17/16 Q1013 NOSIG
 
BKPR - Prishtina, Yugoslavia
Distance from station: JZ 147km
Ažurirano: 06/07/2020 03:30
Delimično oblačno
Delimično oblačno
 Pravac vetra SZ
Vetar: SZ 7 km/h
Temperatura: 18°C
Tačka rose: 13°C
Vlažnost: 73%
Pritisak: 1013 hPa
Oblaci: Delimično oblačno
Vidljivost: 10 km
Cloud details: Delimično oblačno 2438 m
2020/07/06 01:30 BKPR 060130Z 31004KT 9999 SCT080 18/13 Q1013 NOSIG
LRCV - Craiova, Romania
Distance from station: SI 154km
Ažurirano: 06/07/2020 03:00
Vedro
Vedro
 Pravac vetra ISI
Vetar: ISI 9 km/h
Temperatura: 20°C
Tačka rose: 18°C
Vlažnost: 88%
Pritisak: 1011 hPa
Pregled: Vedro
Vidljivost: greater than 10 km
2020/07/06 01:00 LRCV 060100Z 06005KT CAVOK 20/18 Q1011
LWSK - Skopje/Petrovac, Macedonia
Distance from station: JJZ 185km
Ažurirano: 06/07/2020 03:00
Pretežno oblačno
Pretežno oblačno
 Pravac vetra JI
Vetar: JI 4 km/h
Temperatura: 21°C
Tačka rose: 17°C
Vlažnost: 78%
Pritisak: 1011 hPa
Oblaci: Pretežno oblačno
Vidljivost: 10 km
Cloud details: Few Clouds 1219 m
Pretežno oblačno 2134 m
2020/07/06 01:00 LWSK 060100Z 13002KT 9999 FEW040 BKN070 21/17 Q1011 NOSIG
 
LYVR - Vrsac, Yugoslavia
Distance from station: SSZ 189km
Ažurirano: 06/07/2020 03:00

 Pravac vetra varies
Vetar: varies 2 km/h
Vidljivost: 9 km
2020/07/06 01:00 LYVR 060100Z AUTO VRB01KT 9000 4300 NSC 16/15 Q1012
LYUZ - Uzice-Ponikve, Yugoslavia
Distance from station: Z 207km
Ažurirano: 06/07/2020 03:00
Delimično oblačno
Delimično oblačno
 Pravac vetra SZ
Vetar: SZ 13 km/h
Temperatura: 16°C
Tačka rose: 15°C
Vlažnost: 94%
Pritisak: 1017 hPa
Oblaci: Delimično oblačno
Vidljivost: 10 km
Cloud details: Delimično oblačno 1250 m
2020/07/06 01:00 LYUZ 060100Z AUTO 32007KT 9999 SCT041/// 16/15 Q1017
LYBE - Belgrade/Surcin, Yugoslavia
Distance from station: SZ 209km
Ažurirano: 06/07/2020 03:00
Vedro
Vedro
 Pravac vetra JZ
Vetar: JZ 7 km/h
Temperatura: 19°C
Tačka rose: 15°C
Vlažnost: 78%
Pritisak: 1013 hPa
Pregled: Vedro
Vidljivost: greater than 10 km
2020/07/06 01:00 LYBE 060100Z 22004KT CAVOK 19/15 Q1013 NOSIG
 
LYBT - Batajnica, Yugoslavia
Distance from station: SZ 219km
Ažurirano: 06/07/2020 03:00
Vedro
Vedro
 Pravac vetra JJI
Vetar: JJI 2 km/h
Temperatura: 16°C
Tačka rose: 14°C
Vlažnost: 88%
Pritisak: 1012 hPa
Pregled: Vedro
Vidljivost: greater than 10 km
2020/07/06 01:00 LYBT 060100Z 16001KT CAVOK 16/14 Q1012 NOSIG
LRTR - Timisoara/Giarma, Romania
Distance from station: SSZ 260km
Ažurirano: 06/07/2020 03:00
Vedro
Vedro
 Pravac vetra ISI
Vetar: ISI 7 km/h
Temperatura: 16°C
Tačka rose: 16°C
Vlažnost: 100%
Pritisak: 1012 hPa
Pregled: Vedro
Vidljivost: greater than 10 km
2020/07/06 01:00 LRTR 060100Z 07004KT CAVOK 16/16 Q1012
LBPD - Plovdiv, Bulgaria
Distance from station: JI 263km
Ažurirano: 06/07/2020 03:00
Vedro
Vedro
 Pravac vetra varies
Vetar: varies 4 km/h
Temperatura: 21°C
Tačka rose: 17°C
Vlažnost: 78%
Pritisak: 1010 hPa
Oblaci: Vedro
Vidljivost: 10 km
2020/07/06 01:00 LBPD 060100Z AUTO VRB02KT 9999 NCD 21/17 Q1010
 
LYPG - Podgorica(Titogr, Yugoslavia
Distance from station: ZJZ 278km
Ažurirano: 06/07/2020 03:00
Vedro
Vedro
 Pravac vetra S
Vetar: S 15 km/h
Temperatura: 26°C
Tačka rose: 13°C
Vlažnost: 45%
Pritisak: 1009 hPa
Pregled: Vedro
Vidljivost: greater than 10 km
2020/07/06 01:00 LYPG 060100Z 01008KT CAVOK 26/13 Q1009 NOSIG
LBGO - Gorna Orechovist, Bulgaria
Distance from station: I 285km
Ažurirano: 06/07/2020 03:00
Vedro
Vedro
 Pravac vetra varies
Vetar: varies 4 km/h
Temperatura: 19°C
Tačka rose: 19°C
Vlažnost: 100%
Pritisak: 1010 hPa
Oblaci: Vedro
Vidljivost: 10 km
2020/07/06 01:00 LBGO 060100Z AUTO VRB02KT 9999 NCD 19/19 Q1010
LRSB - Sibiu/Turnisor, Romania
Distance from station: SSI 286km
Ažurirano: 06/07/2020 03:00
Pretežno oblačno
Pretežno oblačno
 Pravac vetra calm
Vetar: Tišina
Temperatura: 18°C
Tačka rose: 17°C
Vlažnost: 94%
Pritisak: 1014 hPa
Oblaci: Pretežno oblačno
Vidljivost: 10 km
Cloud details: Pretežno oblačno 1311 m
2020/07/06 01:00 LRSB 060100Z 00000KT 9999 BKN043 18/17 Q1014
 
LWOH - Ohrid, Macedonia
Distance from station: JJZ 292km
Ažurirano: 05/07/2020 20:00
NOT Current
Pretežno oblačno
Pretežno oblačno
 Pravac vetra IJI
Vetar: IJI 22 km/h
Temperatura: 22°C
Tačka rose: 14°C
Vlažnost: 61%
Pritisak: 1013 hPa
Oblaci: Pretežno oblačno
Vidljivost: 10 km
Cloud details: Delimično oblačno 1219 m
Pretežno oblačno 1372 m
2020/07/05 18:00 LWOH 051800Z 11012KT 9999 SCT040CB BKN045 22/14 Q1013
LQTZ - Tuzla, Yugoslavia
Distance from station: ZSZ 298km
Ažurirano: 06/07/2020 03:00
Shallow fog, Delimično oblačno
Shallow fog, Delimično oblačno
 Pravac vetra varies
Vetar: varies 2 km/h
Temperatura: 13°C
Tačka rose: 13°C
Vlažnost: 100%
Pritisak: 1014 hPa
Pregled: Shallow Fog
Oblaci: Delimično oblačno
Vidljivost: 10 km
2020/07/06 01:00 LQTZ 060100Z VRB01KT 9999 MIFG NSC 13/13 Q1014
LRAR - Arad, Romania
Distance from station: SSZ 301km
Ažurirano: 06/07/2020 03:00
Vedro
Vedro
 Pravac vetra Z
Vetar: Z 2 km/h
Temperatura: 18°C
Tačka rose: 17°C
Vlažnost: 94%
Pritisak: 1012 hPa
Pregled: Vedro
Vidljivost: greater than 10 km
2020/07/06 01:00 LRAR 060100Z 26001KT CAVOK 18/17 Q1012
 
LYTV - Tivat, Yugoslavia
Distance from station: ZJZ 315km
Ažurirano: 06/07/2020 03:00
Vedro
Vedro
 Pravac vetra varies
Vetar: varies 4 km/h
Temperatura: 20°C
Tačka rose: 18°C
Vlažnost: 88%
Pritisak: 1008 hPa
Pregled: Vedro
Vidljivost: greater than 10 km
2020/07/06 01:00 LYTV 060100Z VRB02KT CAVOK 20/18 Q1008
LATI - Tirana, Albania
Distance from station: JZ 316km
Ažurirano: 06/07/2020 03:20
Pretežno oblačno
Pretežno oblačno
 Pravac vetra varies
Vetar: varies 4 km/h
Temperatura: 21°C
Tačka rose: 18°C
Vlažnost: 83%
Pritisak: 1008 hPa
Oblaci: Pretežno oblačno
Vidljivost: 10 km
Cloud details: Pretežno oblačno 3962 m
2020/07/06 01:20 LATI 060120Z VRB02KT 9999 BKN130 21/18 Q1008 NOSIG
LQBK - Banja Luka, Yugoslavia
Distance from station: SZ 426km
Ažurirano: 06/07/2020 03:00
Vedro
Vedro
 Pravac vetra SSZ
Vetar: SSZ 4 km/h
Temperatura: 16°C
Tačka rose: 15°C
Vlažnost: 94%
Pritisak: 1014 hPa
Pregled: Vedro
Vidljivost: greater than 10 km
2020/07/06 01:00 LQBK 060100Z 33002KT CAVOK 16/15 Q1014 NOSIG
 
LDOS - Osijek, Croatia
Distance from station: SSZ 360km
Ažurirano: 06/07/2020 03:00
Vedro
Vedro
 Pravac vetra Z
Vetar: Z 9 km/h
Temperatura: 15°C
Tačka rose: 14°C
Vlažnost: 94%
Pritisak: 1013 hPa
Pregled: Vedro
Vidljivost: greater than 10 km
2020/07/06 01:00 LDOS 060100Z 27005KT CAVOK 15/14 Q1013
LDDU - Dubrovnik-Cilipi, Croatia
Distance from station: JZ 352km
Ažurirano: 06/07/2020 03:00
Vedro
Vedro
 Pravac vetra J
Vetar: J 9 km/h
Temperatura: 23°C
Tačka rose: 20°C
Vlažnost: 83%
Pritisak: 1010 hPa
Pregled: Vedro
Vidljivost: greater than 10 km
2020/07/06 01:00 LDDU 060100Z 17005KT 110V190 CAVOK 23/20 Q1010
LQMO - Mostar Airport, Bosnia-Herzegovina
Distance from station: Z 359km
Ažurirano: 06/07/2020 03:00
Few Clouds
Few Clouds
 Pravac vetra varies
Vetar: varies 2 km/h
Temperatura: 22°C
Tačka rose: 15°C
Vlažnost: 65%
Pritisak: 1009 hPa
Oblaci: Few Clouds
Vidljivost: 10 km
Cloud details: Few Clouds 1372 m
2020/07/06 01:00 LQMO 060100Z VRB01KT 9999 FEW045 22/15 Q1009
 
LQSA - Sarajevo/Butmir, Yugoslavia
Distance from station: Z 311km
Ažurirano: 05/07/2020 16:30
NOT Current
Pretežno oblačno
Pretežno oblačno
 Pravac vetra SSZ
Vetar: SSZ 11 km/h
Temperatura: 25°C
Tačka rose: 16°C
Vlažnost: 57%
Pritisak: 1016 hPa
Oblaci: Pretežno oblačno
Vidljivost: 10 km
Cloud details: Few Clouds 1219 m
Pretežno oblačno 1524 m
2020/07/05 14:30 LQSA 051430Z 34006KT 320V030 9999 FEW040TCU BKN050 25/16 Q1016 TEMPO SHRA
LDSP - Split/Kastel Sta, Croatia
Distance from station: Z 468km
Ažurirano: 06/07/2020 03:00
Vedro
Vedro
 Pravac vetra S
Vetar: S 9 km/h
Temperatura: 25°C
Tačka rose: 13°C
Vlažnost: 47%
Pritisak: 1010 hPa
Pregled: Vedro
Vidljivost: greater than 10 km
2020/07/06 01:00 LDSP 060100Z AUTO 35005KT CAVOK 25/13 Q1010
LDZD - Zadar/Zemunik, Croatia
Distance from station: ZSZ 567km
Ažurirano: 06/07/2020 03:00
Vedro
Vedro
 Pravac vetra SI
Vetar: SI 9 km/h
Temperatura: 21°C
Tačka rose: 13°C
Vlažnost: 60%
Pritisak: 1011 hPa
Pregled: Vedro
Vidljivost: greater than 10 km
2020/07/06 01:00 LDZD 060100Z 04005KT CAVOK 21/13 Q1011
 
LDZA - Zagreb/Pleso, Croatia
Distance from station: SZ 555km
Ažurirano: 06/07/2020 03:00
Vedro
Vedro
 Pravac vetra calm
Vetar: Tišina
Temperatura: 16°C
Tačka rose: 15°C
Vlažnost: 94%
Pritisak: 1013 hPa
Pregled: Vedro
Vidljivost: greater than 10 km
2020/07/06 01:00 LDZA 060100Z 00000KT CAVOK 16/15 Q1013 NOSIG
LJCE - Cerklje, Slovenia
Distance from station: SZ 680km
Ažurirano: 06/07/2020 03:00
Vedro
Vedro
 Pravac vetra calm
Vetar: Tišina
Temperatura: 16°C
Tačka rose: 15°C
Vlažnost: 94%
Pritisak: 1014 hPa
Oblaci: Vedro
Vidljivost: 10 km
2020/07/06 01:00 LJCE 060100Z AUTO 00000KT 9999 NCD 16/15 Q1014
LJMB - Maribor, Slovenia
Distance from station: SZ 616km
Ažurirano: 06/07/2020 03:00
Vedro
Vedro
 Pravac vetra SZ
Vetar: SZ 4 km/h
Temperatura: 16°C
Tačka rose: 15°C
Vlažnost: 94%
Pritisak: 1014 hPa
Oblaci: Vedro
Vidljivost: 10 km
2020/07/06 01:00 LJMB 060100Z AUTO 32002KT 9999 NCD 16/15 Q1014
 
LJLJ - Ljubljana/Brnik, Slovenia
Distance from station: SZ 671km
Ažurirano: 06/07/2020 03:00
Vedro
Vedro
 Pravac vetra varies
Vetar: varies 2 km/h
Temperatura: 15°C
Tačka rose: 14°C
Vlažnost: 94%
Pritisak: 1015 hPa
Pregled: Vedro
Vidljivost: greater than 10 km
2020/07/06 01:00 LJLJ 060100Z VRB01KT CAVOK 15/14 Q1015 NOSIG
LDRI - Rijeka, Croatia
Distance from station: SZ 650km
Ažurirano: 06/07/2020 03:00
Vedro
Vedro
 Pravac vetra varies
Vetar: varies 4 km/h
Temperatura: 21°C
Tačka rose: 13°C
Vlažnost: 60%
Pritisak: 1012 hPa
Pregled: Vedro
Vidljivost: greater than 10 km
2020/07/06 01:00 LDRI 060100Z VRB02KT CAVOK 21/13 Q1012
LDPL - Pula, Croatia
Distance from station: ZSZ 686km
Ažurirano: 06/07/2020 03:00
Vedro
Vedro
 Pravac vetra SSI
Vetar: SSI 15 km/h
Temperatura: 22°C
Tačka rose: 13°C
Vlažnost: 57%
Pritisak: 1012 hPa
Pregled: Vedro
Vidljivost: greater than 10 km
2020/07/06 01:00 LDPL 060100Z 03008KT CAVOK 22/13 Q1012
 
LJPZ - Portorož, Slovenia
Distance from station: ZSZ 720km
Ažurirano: 06/07/2020 03:00
Vedro
Vedro
 Pravac vetra IJI
Vetar: IJI 15 km/h
Temperatura: 20°C
Tačka rose: 15°C
Vlažnost: 73%
Pritisak: 1012 hPa
Oblaci: Vedro
Vidljivost: 10 km
2020/07/06 01:00 LJPZ 060100Z AUTO 12008KT 9999 NCD 20/15 Q1012